TimeHST,TemperatureF,Dew PointF,Humidity,Sea Level PressureIn,VisibilityMPH,Wind Direction,Wind SpeedMPH,Gust SpeedMPH,PrecipitationIn,Events,Conditions,WindDirDegrees,DateUTC
12:56 AM,70.0,66.9,90,30.07,10.0,Calm,Calm,-,N/A,,Partly Cloudy,0,2012-10-15 10:56:00
1:56 AM,69.8,66.2,88,30.13,10.0,Calm,Calm,-,N/A,,Partly Cloudy,0,2012-10-15 11:56:00
2:56 AM,68.9,65.8,90,30.05,10.0,Calm,Calm,-,N/A,,Partly Cloudy,0,2012-10-15 12:56:00
3:33 AM,69.8,64.4,83,30.11,10.0,NE,4.6,-,N/A,,Mostly Cloudy,50,2012-10-15 13:33:00
3:47 AM,69.8,64.4,83,30.11,10.0,NE,10.4,-,N/A,,Scattered Clouds,50,2012-10-15 13:47:00
3:56 AM,70.0,63.9,81,30.05,10.0,ENE,9.2,-,N/A,,Partly Cloudy,60,2012-10-15 13:56:00
4:56 AM,69.8,64.4,83,30.11,10.0,ENE,8.1,-,N/A,,Partly Cloudy,60,2012-10-15 14:56:00
5:56 AM,70.0,64.9,84,30.06,10.0,NE,11.5,-,N/A,,Clear,40,2012-10-15 15:56:00
6:56 AM,70.9,64.9,81,30.08,10.0,NE,8.1,-,N/A,,Partly Cloudy,40,2012-10-15 16:56:00
7:56 AM,73.9,63.9,71,30.09,10.0,ENE,6.9,-,N/A,,Clear,60,2012-10-15 17:56:00
8:56 AM,74.8,64.9,71,30.09,10.0,NNE,5.8,-,N/A,,Mostly Cloudy,30,2012-10-15 18:56:00
9:56 AM,79.0,63.9,60,30.07,10.0,NE,10.4,-,N/A,,Partly Cloudy,40,2012-10-15 19:56:00
10:56 AM,82.4,62.6,51,30.13,10.0,Calm,Calm,-,N/A,,Partly Cloudy,0,2012-10-15 20:56:00
11:56 AM,82.9,63.9,52,30.03,10.0,NNE,5.8,-,N/A,,Mostly Cloudy,20,2012-10-15 21:56:00
12:56 PM,83.8,64.9,53,30.00,10.0,NE,10.4,-,N/A,,Partly Cloudy,40,2012-10-15 22:56:00
1:56 PM,78.8,64.4,61,30.05,10.0,Calm,Calm,-,N/A,,Mostly Cloudy,0,2012-10-15 23:56:00
2:56 PM,79.0,64.9,62,29.96,10.0,NE,10.4,-,N/A,,Mostly Cloudy,40,2012-10-16 00:56:00
3:29 PM,78.8,64.4,61,30.03,10.0,NE,9.2,-,N/A,,Scattered Clouds,50,2012-10-16 01:29:00
3:56 PM,79.9,64.9,60,29.96,10.0,NE,9.2,-,N/A,,Mostly Cloudy,50,2012-10-16 01:56:00
4:11 PM,78.8,64.4,61,30.02,10.0,NE,9.2,-,N/A,,Mostly Cloudy,40,2012-10-16 02:11:00
4:56 PM,75.9,63.9,66,29.98,10.0,ENE,4.6,-,N/A,,Partly Cloudy,70,2012-10-16 02:56:00
5:13 PM,78.8,64.4,61,30.04,10.0,NE,8.1,-,N/A,,Mostly Cloudy,40,2012-10-16 03:13:00
5:48 PM,73.4,64.4,73,30.04,10.0,NE,8.1,-,N/A,,Mostly Cloudy,40,2012-10-16 03:48:00
5:56 PM,73.9,64.9,73,29.99,10.0,NE,5.8,-,N/A,,Scattered Clouds,40,2012-10-16 03:56:00
6:56 PM,70.9,63.9,78,30.01,10.0,Calm,Calm,-,N/A,,Clear,0,2012-10-16 04:56:00
7:56 PM,70.9,65.8,84,30.02,10.0,NNE,5.8,-,N/A,,Clear,30,2012-10-16 05:56:00
8:56 PM,68.9,64.9,87,30.04,10.0,Calm,Calm,-,N/A,,Clear,0,2012-10-16 06:56:00
9:56 PM,70.0,64.9,84,30.05,-9999.0,Calm,Calm,-,N/A,,Mostly Cloudy,0,2012-10-16 07:56:00
10:29 PM,68.0,64.4,88,30.11,-9999.0,Calm,Calm,-,N/A,,Clear,0,2012-10-16 08:29:00
10:56 PM,68.0,64.4,88,30.10,-9999.0,NE,4.6,-,N/A,,Clear,40,2012-10-16 08:56:00
11:56 PM,68.9,65.8,90,30.01,10.0,NE,5.8,-,N/A,,Clear,40,2012-10-16 09:56:00